الصفحة الرئيسية
METAR-TAF:

METAR-TAF

مطار :

لاريسا, اليونان

دائرة عرض: 39-38N, خط طول: 022-25E, ارتفاع: 73 متر

METAR: مفقودة

زمن: 10:11 (07:11 UTC)

توقعات

تاريخ ووقت الإصدار 2ساعات و 11 دقيقة قبل الساعة 05:00UTC
التوقعات صالحة من31 الساعة 06 UTC إلى 31 الساعة 15 UTC
ريح 3 عقدةمن اتجاهات متغيرة
الرؤية 10 كم أو أكثر
غيوم قليلة على ارتفاع 2500 قدم
أصبح
من 31 الساعة 10 UTC إلى 31 الساعة 12 UTC
غيوم متفرقة على ارتفاع 2500 قدم
غيوم مفككة على ارتفاع 8000 قدم
نظرية الاحتمالات 30% :
مؤقت
من 31 الساعة 10 UTC إلى 31 الساعة 15 UTC
الرؤية: 5000 متر
غيوم قليلة على ارتفاع 1800 قدم, مزنة ركامية.
غيوم مفككة على ارتفاع 2000 قدم
غيوم مفككة على ارتفاع 8000 قدم
زخات من المطر

TAF: LGLR 310500Z 3106/3115 VRB03KT 9999 FEW025 BECMG 3110/3112 SCT025 BKN080 PROB30 TEMPO 3110/3115 5000 SHRA FEW018CB BKN020 BKN080

أرصاد الطقس والتوقعات من أكثر من 4000 مطار (تقارير الطقس للمطار METAR والتنبؤ بالطقس بالمطارTAF).

المحطات المتاحة هي النقط الصفراء والحمراء على الخريطة.

حرك المؤشر فوق النقطة لمعرفة اسم المحطة.

ثم انقر لمعرفة أرصاد وتوقعات الطقس.

لتغيير الخارطة: اضغط على الأزرار الخضراء مع رمز الصليب الأسود للتكبير. على الزر الأخضر مع شرطة للتصغير، أو على الأسهم الخضراء للخرائط المجاورة.


METAR-TAF: